Latest Coastal Weather Observations for Eucla

IDW60701

Issued at 4:33 am WST Friday 23 June 2017 (issued every 10 minutes, with the page automatically refreshed every 10 minutes)

About coastal observations | Map of coastal stations | Coastal observations for WA | Marine services | Other Formats
Station Details ID: 011003 Name: EUCLA Lat: -31.68 Lon: 128.90 Height: 93.1 m
Data from the previous 72 hours. | See also: Recent months at Eucla
Date/Time
WST
Temp
°C
Wind Pressure Rain since
9am
mm
Weather Cloud Vis
km
Sea
Height
m
Swell
Dir  Spd
kts
Gust
kts
hPa Trend Height
m
Period
s
Dir
23/04:30am 12.1 WNW 6 7 1018.0 - 0.2 - - - - - - -
23/04:00am 12.7 WNW 7 9 1018.0 - 0.2 - - - - - - -
23/03:30am 12.8 W 6 8 1017.8 - 0.2 - - - - - - -
23/03:00am 12.9 WNW 5 7 1017.6 - 0.2 - - - - - - -
23/02:30am 12.7 WNW 6 8 1017.1 - 0.2 - - - - - - -
23/02:00am 11.6 W 5 7 1017.2 - 0.2 - - - - - - -
23/01:30am 12.3 NNW 7 8 1017.3 - 0.2 - - - - - - -
23/01:00am 12.6 NNW 6 8 1017.2 - 0.2 - - - - - - -
23/12:30am 12.4 NNW 7 8 1016.9 - 0.2 - - - - - - -
23/12:00am 12.4 NW 5 7 1016.8 - 0.2 - - - - - - -
 
Date/Time
WST
Temp
°C
Wind Pressure Rain since
9am
mm
Weather Cloud Vis
km
Sea
Height
m
Swell
Dir  Spd
kts
Gust
kts
hPa Trend Height
m
Period
s
Dir
22/11:30pm 11.6 N 6 7 1016.7 - 0.2 - - - - - - -
22/11:00pm 11.3 N 6 7 1016.9 - 0.2 - - - - - - -
22/10:30pm 11.6 N 6 6 1017.1 - 0.2 - - - - - - -
22/10:00pm 11.9 NNE 5 6 1017.2 - 0.2 - - - - - - -
22/09:30pm 12.2 NNW 4 5 1017.4 - 0.2 - - - - - - -
22/09:00pm 12.1 WSW 4 5 1017.5 - 0.2 - - - - - - -
22/08:30pm 12.8 SW 1 5 1017.7 - 0.2 - - - - - - -
22/08:00pm 14.3 NW 3 5 1017.9 - 0.2 - - - - - - -
22/07:30pm 17.4 WNW 9 13 1018.7 - 0.0 - - - - - - -
22/07:00pm 16.1 N 5 6 1017.9 - 0.0 - - - - - - -
22/06:30pm 16.4 ENE 5 8 1017.8 - 0.0 - - - - - - -
22/06:00pm 16.7 ENE 4 5 1017.8 - 0.0 - - - - - - -
22/05:30pm 16.7 NE 3 5 1017.5 - 0.0 - - - - - - -
22/05:00pm 17.3 ENE 1 4 1017.0 - 0.0 - - - - - - -
22/04:30pm 17.6 E 5 6 1016.4 - 0.0 - - - - - - -
22/04:00pm 18.0 ESE 5 6 1016.3 - 0.0 - - - - - - -
22/03:30pm 18.5 ESE 4 6 1016.2 - 0.0 - - - - - - -
22/03:00pm 19.2 ESE 4 6 1016.3 - 0.0 Haze Mostly cloudy 25 - - - -
22/02:30pm 19.5 E 5 7 1016.2 - 0.0 - - - - - - -
22/02:00pm 19.7 ESE 5 7 1016.1 - 0.0 - - - - - - -
22/01:30pm 19.5 ESE 5 8 1016.2 - 0.0 - - - - - - -
22/01:00pm 19.9 ESE 6 10 1016.2 - 0.0 - - - - - - -
22/12:30pm 19.7 ESE 5 7 1016.9 - 0.0 - - - - - - -
22/12:00pm 21.1 SE 7 10 1017.0 - 0.0 - - - - - - -
22/11:30am 23.7 NW 4 6 1017.3 - 0.0 - - - - - - -
22/11:00am 22.9 NNW 6 8 1017.9 - 0.0 - - - - - - -
22/10:30am 21.2 NNW 8 11 1018.7 - 0.0 - - - - - - -
22/10:00am 19.5 N 10 13 1019.4 - 0.0 - - - - - - -
22/09:30am 17.5 N 9 13 1019.7 - 0.0 - - - - - - -
22/09:00am 15.7 N 9 13 1019.9 - 0.0 Fine Mostly clear 40 - - - -
22/08:30am 13.8 N 9 14 1019.9 - 0.0 - - - - - - -
22/08:00am 10.7 N 9 13 1020.2 - 0.0 - - - - - - -
22/07:30am 7.5 N 9 10 1020.1 - 0.0 - - - - - - -
22/07:00am 6.9 N 9 11 1019.9 - 0.0 - - - - - - -
22/06:30am 6.1 N 9 11 1019.6 - 0.0 - - - - - - -
22/06:00am 6.2 N 9 11 1019.5 - 0.0 - - - - - - -
22/05:30am 6.4 N 9 11 1019.4 - 0.0 - - - - - - -
22/05:00am 6.4 N 9 11 1019.3 - 0.0 - - - - - - -
22/04:30am 6.9 N 9 11 1019.0 - 0.0 - - - - - - -
22/04:00am 7.7 NNE 9 12 1019.0 - 0.0 - - - - - - -
22/03:30am 8.0 NNE 9 11 1018.9 - 0.0 - - - - - - -
22/03:00am 8.6 NNE 9 13 1019.0 - 0.0 - - - - - - -
22/02:30am 9.2 NNE 9 13 1019.2 - 0.0 - - - - - - -
22/02:00am 9.4 NNE 10 13 1019.5 - 0.0 - - - - - - -
22/01:30am 9.1 NNE 9 13 1019.6 - 0.0 - - - - - - -
22/01:00am 9.1 NNE 9 12 1019.7 - 0.0 - - - - - - -
22/12:30am 9.3 NNE 9 12 1019.7 - 0.0 - - - - - - -
22/12:00am 9.9 NNE 9 11 1020.2 - 0.0 - - - - - - -
 
Date/Time
WST
Temp
°C
Wind Pressure Rain since
9am
mm
Weather Cloud Vis
km
Sea
Height
m
Swell
Dir  Spd
kts
Gust
kts
hPa Trend Height
m
Period
s
Dir
21/11:30pm 10.4 NNE 9 10 1020.6 - 0.0 - - - - - - -
21/11:00pm 10.3 NNE 8 11 1020.6 - 0.0 - - - - - - -
21/10:30pm 10.3 NE 8 10 1020.7 - 0.0 - - - - - - -
21/10:00pm 10.8 NE 8 11 1020.8 - 0.0 - - - - - - -
21/09:30pm 11.3 NE 9 12 1021.1 - 0.0 - - - - - - -
21/09:00pm 12.2 NE 8 10 1021.3 - 0.0 - - - - - - -
21/08:30pm 12.2 NE 7 9 1021.3 - 0.0 - - - - - - -
21/08:00pm 12.9 NE 7 8 1021.3 - 0.0 - - - - - - -
21/07:30pm 13.4 NE 7 7 1021.4 - 0.0 - - - - - - -
21/07:00pm 13.7 ENE 6 7 1021.4 - 0.0 - - - - - - -
21/06:30pm 15.1 E 6 9 1021.4 - 0.0 - - - - - - -
21/06:00pm 15.3 ESE 7 10 1021.3 - 0.0 - - - - - - -
21/05:30pm 15.5 ESE 7 10 1021.3 - 0.0 - - - - - - -
21/05:00pm 15.6 ESE 8 12 1020.9 - 0.0 - - - - - - -
21/04:30pm 15.8 E 8 12 1020.7 - 0.0 - - - - - - -
21/04:00pm 16.5 ESE 9 14 1020.6 - 0.0 - - - - - - -
21/03:30pm 17.6 ESE 9 14 1020.6 - 0.0 - - - - - - -
21/03:00pm 18.2 ESE 9 13 1020.5 - 0.0 Haze Mostly clear 25 - - - -
21/02:30pm 18.2 ESE 9 13 1020.5 - 0.0 - - - - - - -
21/02:00pm 18.3 SE 8 11 1020.6 - 0.0 - - - - - - -
21/01:30pm 18.9 SE 10 14 1020.8 - 0.0 - - - - - - -
21/01:00pm 19.5 SE 10 14 1021.1 - 0.0 - - - - - - -
21/12:30pm 19.5 ESE 8 13 1021.7 - 0.0 - - - - - - -
21/12:00pm 22.0 NNE 7 10 1022.0 - 0.0 - - - - - - -
21/11:30am 22.1 NNE 6 9 1022.4 - 0.0 - - - - - - -
21/11:00am 21.0 NE 7 10 1023.0 - 0.0 - - - - - - -
21/10:30am 19.8 NNE 7 10 1023.6 - 0.0 - - - - - - -
21/10:00am 18.5 NNE 7 11 1024.2 - 0.0 - - - - - - -
21/09:30am 17.7 NNE 8 11 1024.5 - 0.0 - - - - - - -
21/09:00am 15.8 NNE 7 10 1024.9 - 0.0 Fine Partly cloudy 40 - - - -
21/08:30am 13.5 NNE 8 11 1024.8 - 0.0 - - - - - - -
21/08:00am 10.7 NNE 9 12 1024.8 - 0.0 - - - - - - -
21/07:30am 8.0 NNE 8 10 1024.4 - 0.0 - - - - - - -
21/07:00am 7.7 NNE 8 10 1024.2 - 0.0 - - - - - - -
21/06:30am 7.6 NNE 9 10 1023.8 - 0.0 - - - - - - -
21/06:00am 7.6 NNE 8 9 1023.7 - 0.0 - - - - - - -
21/05:30am 8.3 NNE 8 10 1023.6 - 0.0 - - - - - - -
21/05:00am 8.2 NNE 8 10 1023.4 - 0.0 - - - - - - -
21/04:30am 8.8 NNE 8 11 1023.2 - 0.0 - - - - - - -
21/04:00am 9.1 NE 8 11 1023.3 - 0.0 - - - - - - -
21/03:30am 8.8 NNE 8 9 1023.8 - 0.0 - - - - - - -
21/03:00am 8.6 NNE 7 9 1024.1 - 0.0 - - - - - - -
21/02:30am 9.2 NNE 9 13 1024.1 - 0.0 - - - - - - -
21/02:00am 9.6 NNE 7 9 1024.0 - 0.0 - - - - - - -
21/01:30am 10.2 NE 8 9 1023.9 - 0.0 - - - - - - -
21/01:00am 10.8 NE 9 15 1024.0 - 0.0 - - - - - - -
21/12:30am 10.8 NE 9 13 1023.6 - 0.0 - - - - - - -
21/12:00am 10.5 NE 9 12 1023.6 - 0.0 - - - - - - -
 
Date/Time
WST
Temp
°C
Wind Pressure Rain since
9am
mm
Weather Cloud Vis
km
Sea
Height
m
Swell
Dir  Spd
kts
Gust
kts
hPa Trend Height
m
Period
s
Dir
20/11:30pm 10.2 NE 8 11 1024.2 - 0.0 - - - - - - -
20/11:00pm 10.9 NE 8 12 1024.5 - 0.0 - - - - - - -
20/10:30pm 10.5 NE 8 11 1024.6 - 0.0 - - - - - - -
20/10:00pm 11.2 NE 7 11 1024.5 - 0.0 - - - - - - -
20/09:30pm 12.5 ENE 7 11 1024.5 - 0.0 - - - - - - -
20/09:00pm 12.6 ENE 6 8 1024.4 - 0.0 - - - - - - -
20/08:30pm 13.4 ENE 7 8 1024.3 - 0.0 - - - - - - -
20/08:00pm 13.7 ENE 7 9 1024.1 - 0.0 - - - - - - -
20/07:30pm 13.7 ENE 7 9 1024.0 - 0.0 - - - - - - -
20/07:00pm 13.9 ENE 6 9 1023.9 - 0.0 - - - - - - -
20/06:30pm 14.3 E 7 9 1023.7 - 0.0 - - - - - - -
20/06:00pm 14.3 E 6 8 1023.5 - 0.0 - - - - - - -
20/05:30pm 15.1 ESE 6 8 1023.3 - 0.0 - - - - - - -
20/05:00pm 14.9 ESE 6 8 1023.1 - 0.0 - - - - - - -
20/04:30pm 15.6 ESE 6 8 1022.9 - 0.0 - - - - - - -
20/04:00pm 16.7 ESE 7 10 1022.8 - 0.0 - - - - - - -
20/03:30pm 17.5 ESE 7 10 1022.7 - 0.0 - - - - - - -
20/03:00pm 18.2 SE 8 11 1022.4 - 0.0 Fine Clear 40 - - - -
20/02:30pm 18.9 ESE 7 11 1022.4 - 0.0 - - - - - - -
20/02:00pm 19.6 ESE 9 13 1022.4 - 0.0 - - - - - - -
20/01:30pm 20.4 SE 8 12 1022.5 - 0.0 - - - - - - -
20/01:00pm 20.8 SE 8 11 1022.6 - 0.0 - - - - - - -
20/12:30pm 22.1 N 2 4 1022.9 - 0.0 - - - - - - -
20/12:00pm 22.0 NNW 4 7 1023.3 - 0.0 - - - - - - -
20/11:30am 21.4 NW 6 7 1023.8 - 0.0 - - - - - - -
20/11:00am 20.6 N 6 9 1024.3 - 0.0 - - - - - - -
20/10:30am 20.0 NNW 7 13 1024.6 - 0.0 - - - - - - -
20/10:00am 18.9 NNW 8 12 1025.0 - 0.0 - - - - - - -
20/09:30am 18.0 N 9 12 1025.2 - 0.0 - - - - - - -
20/09:00am 15.7 N 9 13 1025.3 - 0.0 Fine Clear 40 - - - -
20/08:30am 14.7 N 9 12 1025.2 - 0.0 - - - - - - -
20/08:00am 11.8 N 9 14 1024.8 - 0.0 - - - - - - -
20/07:30am 8.9 N 8 11 1024.6 - 0.0 - - - - - - -
20/07:00am 6.7 N 8 10 1024.4 - 0.0 - - - - - - -
20/06:30am 5.9 N 9 11 1024.1 - 0.0 - - - - - - -
20/06:00am 6.6 N 9 13 1023.8 - 0.0 - - - - - - -
20/05:30am 6.6 N 9 12 1023.6 - 0.0 - - - - - - -
20/05:00am 7.0 N 10 12 1023.3 - 0.0 - - - - - - -

Other Formats:

Comma delimited format used in spreadsheet applications
http://www.bom.gov.au/fwo/IDW60701/IDW60701.94647.axf

JavaScript Object Notation format (JSON) in row-major order
http://www.bom.gov.au/fwo/IDW60701/IDW60701.94647.json